Judi M. — WCX8376 — position and weather

sailwx.info

Track history (hours):
 
Tides and Currents Weather Stations Pressure Air Temp Water Temp Dewpoint Dewpoint Depression Visibility Wind Speed Wind Dir Waves Ship Positions

Judi M.

Owner: MANKE TUG & BARGE CO INC, SHELTON, WA. More information available from US FCC via Universal Licensing System and Coast Guard Vessel Documentation Center.

Last reported at 2017-Feb-20 11:33 UTC. Time now 2017-Feb-21 19:05 UTC.
Position N 47°34' W 122°22'.

Length 29 m; draft 4 m.

Type: Tow > 200 m length. MMSI: 366740920.

Date/timePositionNaut miles runAvg speedWind from/ knotsBaromVisibWave heightAir tempDewpointWater temp
2017-Feb-20 11:33N 47°34' W 122°22'3 2.7
2017-Feb-20 10:33N 47°37' W 122°24'5 5.2
2017-Feb-20 09:33N 47°41' W 122°28'6 5.6
2017-Feb-20 08:33N 47°47' W 122°27'6 6.2
2017-Feb-20 07:33N 47°53' W 122°29'6 5.9
2017-Feb-20 06:33N 47°57' W 122°35'12 1.2
2017-Feb-19 20:30N 48°05' W 122°48'1 0.1
2017-Feb-19 13:04N 48°06' W 122°47'4 7.5
2017-Feb-19 12:33N 48°07' W 122°41'10 8.9
2017-Feb-19 11:23N 47°58' W 122°34'7 8.2
2017-Feb-19 10:33N 47°52' W 122°28'8 7.9
2017-Feb-19 09:33N 47°45' W 122°26'7 7.2
2017-Feb-19 08:33N 47°37' W 122°24'4 3.6
2017-Feb-19 07:33N 47°34' W 122°22'  
2017-Feb-13 05:22N 47°34' W 122°22'1 1.3
2017-Feb-13 04:33N 47°35' W 122°22'5 4.7
2017-Feb-13 03:34N 47°39' W 122°27'6 5.8
2017-Feb-13 02:34N 47°44' W 122°27'6 6.4
2017-Feb-13 01:33N 47°51' W 122°29'7 6.6
2017-Feb-13 00:33N 47°57' W 122°33'12 0.7
2017-Feb-12 07:20N 48°06' W 122°44'6 6.6
2017-Feb-12 06:24N 48°02' W 122°38'8 9.4
2017-Feb-12 05:34N 47°56' W 122°29'9 9.0
2017-Feb-12 04:34N 47°47' W 122°26'9 8.6
2017-Feb-12 03:33N 47°39' W 122°27'6 5.7
2017-Feb-12 02:34N 47°34' W 122°22'  
Track history (hours):
 
Tides and Currents Weather Stations Pressure Air Temp Water Temp Dewpoint Dewpoint Depression Visibility Wind Speed Wind Dir Waves Ship Positions

Judi M.

Owner: MANKE TUG & BARGE CO INC, SHELTON, WA. More information available from US FCC via Universal Licensing System and Coast Guard Vessel Documentation Center.

Last reported at 2017-Feb-20 11:33 UTC. Time now 2017-Feb-21 19:05 UTC.
Position N 47°34' W 122°22'.

Length 29 m; draft 4 m.

Type: Tow > 200 m length. MMSI: 366740920.

Date/timePositionNaut miles runAvg speedWind from/ knotsBaromVisibWave heightAir tempDewpointWater temp
2017-Feb-20 11:33N 47°34' W 122°22'3 2.7
2017-Feb-20 10:33N 47°37' W 122°24'5 5.2
2017-Feb-20 09:33N 47°41' W 122°28'6 5.6
2017-Feb-20 08:33N 47°47' W 122°27'6 6.2
2017-Feb-20 07:33N 47°53' W 122°29'6 5.9
2017-Feb-20 06:33N 47°57' W 122°35'12 1.2
2017-Feb-19 20:30N 48°05' W 122°48'1 0.1
2017-Feb-19 13:04N 48°06' W 122°47'4 7.5
2017-Feb-19 12:33N 48°07' W 122°41'10 8.9
2017-Feb-19 11:23N 47°58' W 122°34'7 8.2
2017-Feb-19 10:33N 47°52' W 122°28'8 7.9
2017-Feb-19 09:33N 47°45' W 122°26'7 7.2
2017-Feb-19 08:33N 47°37' W 122°24'4 3.6
2017-Feb-19 07:33N 47°34' W 122°22'  
2017-Feb-13 05:22N 47°34' W 122°22'1 1.3
2017-Feb-13 04:33N 47°35' W 122°22'5 4.7
2017-Feb-13 03:34N 47°39' W 122°27'6 5.8
2017-Feb-13 02:34N 47°44' W 122°27'6 6.4
2017-Feb-13 01:33N 47°51' W 122°29'7 6.6
2017-Feb-13 00:33N 47°57' W 122°33'12 0.7
2017-Feb-12 07:20N 48°06' W 122°44'6 6.6
2017-Feb-12 06:24N 48°02' W 122°38'8 9.4
2017-Feb-12 05:34N 47°56' W 122°29'9 9.0
2017-Feb-12 04:34N 47°47' W 122°26'9 8.6
2017-Feb-12 03:33N 47°39' W 122°27'6 5.7
2017-Feb-12 02:34N 47°34' W 122°22'  

Dump ship's entire track history